San Francisco, CA

8:20 PM PDT on August 29, 2015 (GMT -0700)
SOMA - Near Van Ness | | Change Station
CLOSE
Current Station
Personal Weather Station
Location: San Francisco, CA
Elevation: 49 ft
Nearby Weather Stations
Active Advisory: Beach Hazard Statement Active Notice: Record Report

Elev 49 ft 37.77 °N, 122.42 °W | Updated 1 minute ago

Partly Cloudy
Partly Cloudy
66.2 °F
Feels Like 66.2 °F
N
2.0
Wind Variable Wind from SSW
Gusts 11.0 mph

Today
High -- | Low -- °F
--% Chance of Precip.
Yesterday
High -- | Low -- °F
Precip. -- in
6:37 AM 7:43 PM
Full, 100% visible
Pressure 30.00 in
Visibility 10.0 miles
Clouds Few 1000 ft
Scattered Clouds 20000 ft
Dew Point 62 °F
Humidity 86%
Rainfall 0.00 in
Snow Depth Not available.
UV 0 out of 12
Pollen 6.20 out of 12
Air Quality Not available.
Flu Activity Not available.
METAR KSFO 300256Z 27011KT 10SM FEW010 SCT200 19/14 A3000 RMK AO2 SLP157 T01890144 55001 $
Pressure 30.00 in
Visibility 10.0 miles
Clouds Few 1000 ft
Scattered Clouds 20000 ft
Dew Point 62 °F
Humidity 86%
Rainfall 0.00 in
Snow Depth Not available.
UV 0 out of 12
Pollen 6.20 out of 12
Air Quality Not available.
Flu Activity Not available.
METAR KSFO 300256Z 27011KT 10SM FEW010 SCT200 19/14 A3000 RMK AO2 SLP157 T01890144 55001 $

10-Day Weather Forecast

×

Almanac

Astronomy

Aug. 29, 2015 Rise Set
Actual Time
Civil Twilight
Nautical Twilight
Astronomical Twilight
Moon
Length of Visible Light
Length of Day
Tomorrow will be .
, % of the Moon is Illuminated

Today's Extremes

State Highs State Lows

Community

WunderPhotos

Upload Photos

1,850,867 photos uploaded!

WunderBlogs® & News

Nearby

Air Quality

  Air Quality AQ Index Pollutant
Not available.

Snow Depth

Station Depth Elevation

Earthquake Activity

City Distance Mag. Time & Date
Minimum magnitude displayed is 2.5.

Coastal Water Temperatures

Place Temperature

Stations

Nearby Weather Stations

Station Location Temp. Windchill Dew Point Humidity Wind Precip. Elev Updated Type
                   
Beach Hazard Statement
Statement as of 2:54 PM PDT on August 29, 2015

... Beach hazards statement in effect from Sunday morning through
Sunday evening...

* location... all west facing beaches of Sonoma to Monterey
County. Northwest facing beaches will also be impacted to a
lesser degree.

* Timing... Sunday morning 6am to Sunday evening 9pm.

* Impacts... exceptionally strong rip currents and large shore
breaks.

Precautionary/preparedness actions...

A beach hazard statement for rip currents means that conditions
are present to support a heightened risk of strong rip currents.
Rip currents are typically more frequent and stronger in the
vicinity of jetties... inlets... and piers. Swimmers caught in a
rip current should swim parallel to the coast to escape the rip
current before trying to swim for shore. Swimmers should always
swim near a lifeguard.


Drp

Http://www.Weather.Gov/sanfrancisco